createdAt,value
2018-08-12T00:01:38.354Z,101423.91
2018-08-12T00:04:08.250Z,101424.28
2018-08-12T00:06:38.020Z,101418.20
2018-08-12T00:09:10.641Z,101416.41
2018-08-12T00:11:40.542Z,101414.73
2018-08-12T00:14:10.280Z,101415.11
2018-08-12T00:16:39.913Z,101409.45
2018-08-12T00:19:09.670Z,101409.89
2018-08-12T00:21:39.354Z,101406.47
2018-08-12T00:24:09.154Z,101412.56
2018-08-12T00:26:38.813Z,101409.45
2018-08-12T00:29:08.510Z,101411.70
2018-08-12T00:31:38.249Z,101406.55
2018-08-12T00:34:08.242Z,101404.81
2018-08-12T00:36:38.133Z,101393.25
2018-08-12T00:39:11.869Z,101394.53
2018-08-12T00:41:41.748Z,101394.61
2018-08-12T00:44:11.548Z,101389.89
2018-08-12T00:46:41.304Z,101392.50
2018-08-12T00:49:11.028Z,101393.91
2018-08-12T00:51:40.708Z,101399.70
2018-08-12T00:54:10.428Z,101390.63
2018-08-12T00:56:40.213Z,101392.86
2018-08-12T00:59:09.933Z,101390.84
2018-08-12T01:01:39.618Z,101387.31
2018-08-12T01:04:09.349Z,101378.23
2018-08-12T01:06:39.090Z,101374.32
2018-08-12T01:09:12.445Z,101384.76
2018-08-12T01:11:42.193Z,101380.07
2018-08-12T01:14:11.991Z,101373.98
2018-08-12T01:16:41.696Z,101375.19
2018-08-12T01:19:11.428Z,101372.63
2018-08-12T01:21:41.098Z,101363.88
2018-08-12T01:24:10.826Z,101364.31
2018-08-12T01:26:40.609Z,101362.58
2018-08-12T01:29:10.341Z,101357.68
2018-08-12T01:31:40.135Z,101369.32
2018-08-12T01:34:09.936Z,101358.02
2018-08-12T01:36:39.641Z,101362.74
2018-08-12T01:39:10.604Z,101357.83
2018-08-12T01:41:40.304Z,101350.33
2018-08-12T01:44:10.098Z,101347.59
2018-08-12T01:46:39.756Z,101348.09
2018-08-12T01:49:09.385Z,101346.42
2018-08-12T01:51:39.213Z,101343.44
2018-08-12T01:54:08.937Z,101343.42
2018-08-12T01:56:38.598Z,101343.70
2018-08-12T01:59:08.325Z,101343.52
2018-08-12T02:01:37.959Z,101340.38
2018-08-12T02:04:07.665Z,101346.78
2018-08-12T02:06:37.365Z,101344.16
2018-08-12T02:09:10.073Z,101340.58
2018-08-12T02:11:40.223Z,101347.03
2018-08-12T02:14:10.156Z,101347.02
2018-08-12T02:16:39.891Z,101336.22
2018-08-12T02:19:09.665Z,101334.48
2018-08-12T02:21:39.397Z,101331.13
2018-08-12T02:24:09.420Z,101324.13
2018-08-12T02:26:39.102Z,101325.44
2018-08-12T02:29:08.768Z,101323.38
2018-08-12T02:31:38.483Z,101319.89
2018-08-12T02:34:08.239Z,101314.84
2018-08-12T02:36:38.054Z,101310.58
2018-08-12T02:39:11.093Z,101308.98
2018-08-12T02:41:40.940Z,101304.73
2018-08-12T02:44:10.680Z,101305.80
2018-08-12T02:46:40.569Z,101299.30
2018-08-12T02:49:10.226Z,101296.27
2018-08-12T02:51:39.913Z,101296.12
2018-08-12T02:54:09.726Z,101290.34
2018-08-12T02:56:39.497Z,101286.03
2018-08-12T02:59:09.133Z,101280.42
2018-08-12T03:01:38.812Z,101277.73
2018-08-12T03:04:08.519Z,101269.55
2018-08-12T03:06:38.220Z,101275.38
2018-08-12T03:09:11.826Z,101267.03
2018-08-12T03:11:42.012Z,101262.99
2018-08-12T03:14:11.788Z,101263.29
2018-08-12T03:16:41.536Z,101253.20
2018-08-12T03:19:11.409Z,101254.55
2018-08-12T03:21:41.110Z,101252.71
2018-08-12T03:24:10.951Z,101250.79
2018-08-12T03:26:40.639Z,101255.03
2018-08-12T03:29:10.377Z,101257.98
2018-08-12T03:31:40.208Z,101253.05
2018-08-12T03:34:09.964Z,101250.05
2018-08-12T03:36:39.933Z,101247.34
2018-08-12T03:39:11.671Z,101241.62
2018-08-12T03:41:41.331Z,101239.59
2018-08-12T03:44:10.981Z,101234.06
2018-08-12T03:46:40.752Z,101234.55
2018-08-12T03:49:10.509Z,101234.50
2018-08-12T03:51:40.259Z,101229.24
2018-08-12T03:54:10.104Z,101223.89
2018-08-12T03:56:40.001Z,101226.02
2018-08-12T03:59:09.740Z,101221.50
2018-08-12T04:01:39.419Z,101215.89
2018-08-12T04:04:09.249Z,101218.89
2018-08-12T04:06:38.962Z,101221.11
2018-08-12T04:09:10.436Z,101224.55
2018-08-12T04:11:40.609Z,101219.28
2018-08-12T04:14:10.369Z,101224.02
2018-08-12T04:16:43.793Z,101223.63
2018-08-12T04:19:13.533Z,101215.80
2018-08-12T04:21:43.396Z,101213.72
2018-08-12T04:24:13.106Z,101216.55
2018-08-12T04:26:42.824Z,101210.81
2018-08-12T04:29:12.537Z,101213.50
2018-08-12T04:31:42.291Z,101209.52
2018-08-12T04:34:12.060Z,101214.62
2018-08-12T04:36:41.857Z,101217.50
2018-08-12T04:39:13.217Z,101214.80
2018-08-12T04:41:44.068Z,101211.67
2018-08-12T04:44:14.203Z,101206.41
2018-08-12T04:46:44.052Z,101209.89
2018-08-12T04:49:13.717Z,101210.76
2018-08-12T04:51:43.478Z,101219.55
2018-08-12T04:54:13.193Z,101213.89
2018-08-12T04:56:42.990Z,101211.36
2018-08-12T04:59:12.679Z,101212.56
2018-08-12T05:01:42.418Z,101207.48
2018-08-12T05:04:12.208Z,101204.29
2018-08-12T05:06:41.863Z,101200.58
2018-08-12T05:09:12.503Z,101201.49
2018-08-12T05:11:42.278Z,101194.08
2018-08-12T05:14:12.181Z,101200.74
2018-08-12T05:16:42.022Z,101203.75
2018-08-12T05:19:11.789Z,101200.28
2018-08-12T05:21:41.609Z,101196.83
2018-08-12T05:24:11.366Z,101194.56
2018-08-12T05:26:41.122Z,101199.84
2018-08-12T05:29:11.032Z,101196.41
2018-08-12T05:31:40.800Z,101190.73
2018-08-12T05:34:10.632Z,101189.86
2018-08-12T05:36:40.449Z,101183.78
2018-08-12T05:39:12.801Z,101192.52
2018-08-12T05:41:43.037Z,101193.02
2018-08-12T05:44:12.779Z,101191.73
2018-08-12T05:46:42.502Z,101188.23
2018-08-12T05:49:12.276Z,101189.99
2018-08-12T05:51:42.096Z,101188.24
2018-08-12T05:54:12.027Z,101176.09
2018-08-12T05:56:41.760Z,101176.09
2018-08-12T05:59:11.455Z,101172.18
2018-08-12T06:01:41.186Z,101171.32
2018-08-12T06:04:11.006Z,101167.81
2018-08-12T06:06:40.731Z,101161.75
2018-08-12T06:09:11.208Z,101162.64
2018-08-12T06:11:40.988Z,101166.58
2018-08-12T06:14:10.909Z,101173.55
2018-08-12T06:16:40.882Z,101167.44
2018-08-12T06:19:10.737Z,101166.96
2018-08-12T06:21:40.512Z,101164.74
2018-08-12T06:24:10.298Z,101163.42
2018-08-12T06:26:40.015Z,101166.35
2018-08-12T06:29:09.849Z,101161.88
2018-08-12T06:31:39.518Z,101162.62
2018-08-12T06:34:09.321Z,101162.51
2018-08-12T06:36:39.211Z,101155.14
2018-08-12T06:39:11.504Z,101150.52
2018-08-12T06:41:41.198Z,101152.97
2018-08-12T06:44:10.926Z,101146.49
2018-08-12T06:46:43.704Z,101143.86
2018-08-12T06:49:13.456Z,101147.59
2018-08-12T06:51:43.289Z,101147.33
2018-08-12T06:54:12.973Z,101148.66
2018-08-12T06:56:42.750Z,101145.11
2018-08-12T06:59:12.447Z,101143.58
2018-08-12T07:01:42.280Z,101141.52
2018-08-12T07:04:12.036Z,101133.31
2018-08-12T07:06:41.750Z,101136.37
2018-08-12T07:09:12.044Z,101129.36
2018-08-12T07:11:41.802Z,101133.70
2018-08-12T07:14:11.541Z,101141.26
2018-08-12T07:16:41.137Z,101138.27
2018-08-12T07:19:10.876Z,101135.42
2018-08-12T07:21:40.911Z,101133.64
2018-08-12T07:24:10.584Z,101131.99
2018-08-12T07:26:40.265Z,101132.34
2018-08-12T07:29:10.406Z,101125.49
2018-08-12T07:31:40.102Z,101124.59
2018-08-12T07:34:09.837Z,101115.97
2018-08-12T07:36:39.497Z,101119.68
2018-08-12T07:39:10.298Z,101110.34
2018-08-12T07:41:40.032Z,101112.58
2018-08-12T07:44:09.845Z,101106.48
2018-08-12T07:46:39.551Z,101113.06
2018-08-12T07:49:09.232Z,101101.91
2018-08-12T07:51:38.909Z,101102.70
2018-08-12T07:54:08.672Z,101100.91
2018-08-12T07:56:38.544Z,101100.91
2018-08-12T07:59:08.306Z,101099.22
2018-08-12T08:01:38.054Z,101095.27
2018-08-12T08:04:07.886Z,101096.62
2018-08-12T08:06:37.778Z,101099.41
2018-08-12T08:09:11.073Z,101090.86
2018-08-12T08:11:41.403Z,101094.56
2018-08-12T08:14:11.172Z,101096.78
2018-08-12T08:16:40.879Z,101102.53
2018-08-12T08:19:10.761Z,101098.99
2018-08-12T08:21:40.553Z,101103.95
2018-08-12T08:24:10.312Z,101102.22
2018-08-12T08:26:40.196Z,101101.75
2018-08-12T08:29:09.872Z,101095.85
2018-08-12T08:31:39.838Z,101098.45
2018-08-12T08:34:09.405Z,101094.77
2018-08-12T08:36:39.145Z,101088.08
2018-08-12T08:39:13.170Z,101087.38
2018-08-12T08:41:43.341Z,101081.78
2018-08-12T08:44:13.112Z,101086.42
2018-08-12T08:46:42.809Z,101078.95
2018-08-12T08:49:12.675Z,101072.85
2018-08-12T08:51:42.346Z,101070.90
2018-08-12T08:54:12.063Z,101067.93
2018-08-12T08:56:41.939Z,101065.70
2018-08-12T08:59:11.865Z,101054.20
2018-08-12T09:01:41.821Z,101062.88
2018-08-12T09:04:11.453Z,101067.56
2018-08-12T09:06:41.170Z,101062.70
2018-08-12T09:09:14.509Z,101058.55
2018-08-12T09:11:44.456Z,101056.58
2018-08-12T09:14:14.212Z,101063.43
2018-08-12T09:16:43.921Z,101056.46
2018-08-12T09:19:13.612Z,101049.75
2018-08-12T09:21:43.316Z,101055.48
2018-08-12T09:24:12.978Z,101036.88
2018-08-12T09:26:42.674Z,101042.94
2018-08-12T09:29:12.336Z,101034.46
2018-08-12T09:31:42.317Z,101037.16
2018-08-12T09:34:12.083Z,101034.86
2018-08-12T09:36:41.790Z,101035.70
2018-08-12T09:39:12.721Z,101019.52
2018-08-12T09:41:42.464Z,101030.07
2018-08-12T09:44:12.262Z,101025.59
2018-08-12T09:46:41.976Z,101022.92
2018-08-12T09:49:11.914Z,101023.12
2018-08-12T09:51:41.670Z,101019.52
2018-08-12T09:54:11.430Z,101016.79
2018-08-12T09:56:41.211Z,101016.34
2018-08-12T09:59:10.981Z,101015.92
2018-08-12T10:01:40.719Z,101010.53
2018-08-12T10:04:10.476Z,101010.78
2018-08-12T10:06:40.275Z,101002.77
2018-08-12T10:09:11.449Z,101003.48
2018-08-12T10:11:41.186Z,101000.33
2018-08-12T10:14:10.901Z,101001.08
2018-08-12T10:16:40.775Z,100994.52
2018-08-12T10:19:10.533Z,100992.71
2018-08-12T10:21:40.425Z,100987.97
2018-08-12T10:24:10.224Z,100978.45
2018-08-12T10:26:40.062Z,100977.36
2018-08-12T10:29:09.757Z,100968.91
2018-08-12T10:31:39.442Z,100965.73
2018-08-12T10:34:09.084Z,100969.04
2018-08-12T10:36:38.844Z,100953.75
2018-08-12T10:39:09.665Z,100954.23
2018-08-12T10:41:39.393Z,100956.98
2018-08-12T10:44:09.177Z,100947.95
2018-08-12T10:46:38.903Z,100947.97
2018-08-12T10:49:08.669Z,100949.06
2018-08-12T10:51:38.432Z,100939.30
2018-08-12T10:54:08.495Z,100934.23
2018-08-12T10:56:38.462Z,100933.13
2018-08-12T10:59:08.305Z,100938.62
2018-08-12T11:01:38.091Z,100927.63
2018-08-12T11:04:08.096Z,100927.04
2018-08-12T11:06:37.872Z,100922.58
2018-08-12T11:09:09.211Z,100921.11
2018-08-12T11:11:39.086Z,100927.16
2018-08-12T11:14:08.816Z,100921.08
2018-08-12T11:16:38.600Z,100921.75
2018-08-12T11:19:08.302Z,100917.86
2018-08-12T11:21:38.061Z,100913.98
2018-08-12T11:24:07.886Z,100899.31
2018-08-12T11:26:37.695Z,100903.72
2018-08-12T11:29:08.166Z,100900.78
2018-08-12T11:31:37.898Z,100887.68
2018-08-12T11:34:08.383Z,100889.84
2018-08-12T11:36:38.221Z,100881.56
2018-08-12T11:39:11.263Z,100880.66
2018-08-12T11:41:41.186Z,100874.75
2018-08-12T11:44:10.946Z,100879.86
2018-08-12T11:46:40.617Z,100878.75
2018-08-12T11:49:10.480Z,100868.19
2018-08-12T11:51:40.147Z,100863.55
2018-08-12T11:54:10.162Z,100866.97
2018-08-12T11:56:39.856Z,100859.53
2018-08-12T11:59:09.553Z,100858.53
2018-08-12T12:01:39.281Z,100855.39
2018-08-12T12:04:09.047Z,100846.38
2018-08-12T12:06:38.863Z,100830.25
2018-08-12T12:09:10.478Z,100834.90
2018-08-12T12:11:40.189Z,100834.88
2018-08-12T12:14:09.914Z,100827.86
2018-08-12T12:16:39.710Z,100823.07
2018-08-12T12:19:09.549Z,100821.16
2018-08-12T12:21:39.276Z,100819.59
2018-08-12T12:24:09.029Z,100818.31
2018-08-12T12:26:38.797Z,100817.87
2018-08-12T12:29:08.535Z,100811.00
2018-08-12T12:31:38.350Z,100813.37
2018-08-12T12:34:08.373Z,100805.83
2018-08-12T12:36:38.236Z,100802.72
2018-08-12T12:39:10.985Z,100800.66
2018-08-12T12:41:40.811Z,100791.94
2018-08-12T12:44:10.585Z,100791.67
2018-08-12T12:46:40.433Z,100785.16
2018-08-12T12:49:10.193Z,100778.95
2018-08-12T12:51:40.018Z,100773.59
2018-08-12T12:54:09.986Z,100768.30
2018-08-12T12:56:39.781Z,100761.53
2018-08-12T12:59:09.594Z,100757.45
2018-08-12T13:01:39.541Z,100756.36
2018-08-12T13:04:09.530Z,100752.75
2018-08-12T13:06:39.272Z,100749.21
2018-08-12T13:09:12.519Z,100745.31
2018-08-12T13:11:42.675Z,100732.98
2018-08-12T13:14:12.529Z,100736.70
2018-08-12T13:16:43.841Z,100729.20
2018-08-12T13:19:13.572Z,100722.31
2018-08-12T13:21:45.319Z,100717.23
2018-08-12T13:24:15.135Z,100717.17
2018-08-12T13:26:44.977Z,100715.13
2018-08-12T13:29:14.637Z,100712.52
2018-08-12T13:31:44.326Z,100705.64
2018-08-12T13:34:14.074Z,100702.35
2018-08-12T13:36:43.793Z,100701.67
2018-08-12T13:39:14.393Z,100693.66
2018-08-12T13:41:44.181Z,100691.67
2018-08-12T13:44:14.002Z,100696.84
2018-08-12T13:46:43.781Z,100690.72
2018-08-12T13:49:13.621Z,100684.56
2018-08-12T13:51:43.294Z,100688.84
2018-08-12T13:54:12.969Z,100686.39
2018-08-12T13:56:42.666Z,100677.48
2018-08-12T13:59:12.421Z,100668.26
2018-08-12T14:01:42.284Z,100666.86
2018-08-12T14:04:11.947Z,100657.77
2018-08-12T14:06:41.764Z,100644.72
2018-08-12T14:09:11.942Z,100644.73
2018-08-12T14:11:41.786Z,100649.02
2018-08-12T14:14:11.578Z,100637.50
2018-08-12T14:16:41.372Z,100632.99
2018-08-12T14:19:11.154Z,100631.08
2018-08-12T14:21:40.898Z,100626.58
2018-08-12T14:24:10.697Z,100630.04
2018-08-12T14:26:40.473Z,100620.90
2018-08-12T14:29:10.241Z,100625.23
2018-08-12T14:31:40.047Z,100613.84
2018-08-12T14:34:10.091Z,100609.14
2018-08-12T14:36:39.872Z,100597.88
2018-08-12T14:39:10.833Z,100592.53
2018-08-12T14:41:40.627Z,100588.94
2018-08-12T14:44:10.436Z,100583.41
2018-08-12T14:46:40.331Z,100584.14
2018-08-12T14:49:10.099Z,100570.19
2018-08-12T14:51:39.752Z,100567.62
2018-08-12T14:54:09.518Z,100570.11
2018-08-12T14:56:39.455Z,100567.24
2018-08-12T14:59:09.691Z,100563.06
2018-08-12T15:01:39.421Z,100555.08
2018-08-12T15:04:09.141Z,100557.55
2018-08-12T15:06:38.856Z,100550.75
2018-08-12T15:09:11.827Z,100547.66
2018-08-12T15:11:41.883Z,100539.81
2018-08-12T15:14:11.644Z,100534.42
2018-08-12T15:16:41.325Z,100528.75
2018-08-12T15:19:11.100Z,100522.66
2018-08-12T15:21:41.038Z,100522.08
2018-08-12T15:24:10.698Z,100526.12
2018-08-12T15:26:40.382Z,100525.23
2018-08-12T15:29:10.171Z,100519.63
2018-08-12T15:31:39.842Z,100517.33
2018-08-12T15:34:10.123Z,100521.66
2018-08-12T15:36:39.853Z,100513.16
2018-08-12T15:39:12.211Z,100513.67
2018-08-12T15:41:42.956Z,100512.30
2018-08-12T15:44:12.734Z,100511.82
2018-08-12T15:46:42.758Z,100508.06
2018-08-12T15:49:12.614Z,100518.47
2018-08-12T15:51:42.549Z,100502.16
2018-08-12T15:54:12.458Z,100511.64
2018-08-12T15:56:42.406Z,100505.97
2018-08-12T15:59:12.179Z,100510.98
2018-08-12T16:01:42.503Z,100506.05
2018-08-12T16:04:12.310Z,100500.85
2018-08-12T16:06:42.034Z,100496.89
2018-08-12T16:09:12.749Z,100497.24
2018-08-12T16:11:42.590Z,100492.75
2018-08-12T16:14:12.789Z,100502.64
2018-08-12T16:16:42.549Z,100494.45
2018-08-12T16:19:12.469Z,100495.77
2018-08-12T16:21:42.292Z,100496.52
2018-08-12T16:24:12.093Z,100488.65
2018-08-12T16:26:41.944Z,100488.02
2018-08-12T16:29:11.930Z,100482.61
2018-08-12T16:31:41.726Z,100474.23
2018-08-12T16:34:11.473Z,100475.34
2018-08-12T16:36:41.414Z,100473.28
2018-08-12T16:39:12.681Z,100471.45
2018-08-12T16:41:42.514Z,100460.19
2018-08-12T16:44:13.088Z,100462.93
2018-08-12T16:46:42.828Z,100461.74
2018-08-12T16:49:12.601Z,100462.70
2018-08-12T16:51:42.294Z,100461.84
2018-08-12T16:54:11.996Z,100444.89
2018-08-12T16:56:41.800Z,100450.68
2018-08-12T16:59:11.722Z,100444.61
2018-08-12T17:01:41.472Z,100434.77
2018-08-12T17:04:11.384Z,100432.94
2018-08-12T17:06:41.039Z,100437.98
2018-08-12T17:09:12.292Z,100437.68
2018-08-12T17:11:42.060Z,100434.95
2018-08-12T17:14:12.073Z,100434.63
2018-08-12T17:16:41.791Z,100425.51
2018-08-12T17:19:11.607Z,100428.16
2018-08-12T17:21:41.347Z,100422.19
2018-08-12T17:24:11.061Z,100415.23
2018-08-12T17:26:40.885Z,100414.47
2018-08-12T17:29:10.633Z,100410.01
2018-08-12T17:31:40.405Z,100404.00
2018-08-12T17:34:10.211Z,100403.09
2018-08-12T17:36:39.955Z,100393.44
2018-08-12T17:39:11.090Z,100391.27
2018-08-12T17:41:40.880Z,100384.91
2018-08-12T17:44:10.703Z,100380.87
2018-08-12T17:46:40.565Z,100375.27
2018-08-12T17:49:10.487Z,100378.34
2018-08-12T17:51:40.265Z,100378.41
2018-08-12T17:54:10.216Z,100376.78
2018-08-12T17:56:39.894Z,100379.94
2018-08-12T17:59:09.881Z,100374.98
2018-08-12T18:01:39.562Z,100372.34
2018-08-12T18:04:09.378Z,100379.09
2018-08-12T18:06:39.075Z,100380.06
2018-08-12T18:09:09.682Z,100381.41
2018-08-12T18:11:39.349Z,100379.14
2018-08-12T18:14:09.496Z,100373.02
2018-08-12T18:16:39.313Z,100378.50
2018-08-12T18:19:09.081Z,100378.86
2018-08-12T18:21:38.823Z,100381.81
2018-08-12T18:24:08.810Z,100380.94
2018-08-12T18:26:38.640Z,100380.71
2018-08-12T18:29:08.357Z,100373.66
2018-08-12T18:31:38.213Z,100374.45
2018-08-12T18:34:08.123Z,100380.34
2018-08-12T18:36:37.785Z,100380.58
2018-08-12T18:39:11.131Z,100380.72
2018-08-12T18:41:41.093Z,100381.19
2018-08-12T18:44:11.256Z,100382.94
2018-08-12T18:46:40.996Z,100376.92
2018-08-12T18:49:10.792Z,100375.65
2018-08-12T18:51:40.553Z,100377.66
2018-08-12T18:54:10.357Z,100371.63
2018-08-12T18:56:40.299Z,100377.04
2018-08-12T18:59:09.969Z,100376.52
2018-08-12T19:01:39.637Z,100380.82
2018-08-12T19:04:09.447Z,100380.59
2018-08-12T19:06:39.166Z,100373.95
2018-08-12T19:09:11.018Z,100372.83
2018-08-12T19:11:40.786Z,100371.45
2018-08-12T19:14:10.566Z,100374.60
2018-08-12T19:16:40.239Z,100384.06
2018-08-12T19:19:10.117Z,100380.66
2018-08-12T19:21:39.837Z,100381.19
2018-08-12T19:24:09.611Z,100385.63
2018-08-12T19:26:39.358Z,100385.99
2018-08-12T19:29:09.561Z,100384.79
2018-08-12T19:31:39.270Z,100385.35
2018-08-12T19:34:08.977Z,100383.67
2018-08-12T19:36:38.766Z,100387.08
2018-08-12T19:39:11.194Z,100376.78
2018-08-12T19:41:40.965Z,100382.72
2018-08-12T19:44:10.732Z,100390.75
2018-08-12T19:46:40.583Z,100387.19
2018-08-12T19:49:10.341Z,100388.57
2018-08-12T19:51:40.019Z,100385.33
2018-08-12T19:54:09.768Z,100374.27
2018-08-12T19:56:39.649Z,100378.30
2018-08-12T19:59:09.393Z,100376.39
2018-08-12T20:01:39.220Z,100381.60
2018-08-12T20:04:08.957Z,100381.05
2018-08-12T20:06:38.673Z,100377.95
2018-08-12T20:09:11.344Z,100370.34
2018-08-12T20:11:41.161Z,100375.06
2018-08-12T20:14:10.917Z,100363.89
2018-08-12T20:16:40.716Z,100362.28
2018-08-12T20:19:10.533Z,100365.52
2018-08-12T20:21:40.356Z,100359.57
2018-08-12T20:24:10.237Z,100358.93
2018-08-12T20:26:39.915Z,100355.95
2018-08-12T20:29:09.734Z,100350.43
2018-08-12T20:31:39.502Z,100343.47
2018-08-12T20:34:09.258Z,100344.30
2018-08-12T20:36:39.818Z,100338.91
2018-08-12T20:39:12.460Z,100336.16
2018-08-12T20:41:43.125Z,100335.27
2018-08-12T20:44:13.057Z,100334.16
2018-08-12T20:46:42.846Z,100339.66
2018-08-12T20:49:12.619Z,100335.56
2018-08-12T20:51:42.571Z,100335.83
2018-08-12T20:54:14.310Z,100335.12
2018-08-12T20:56:44.107Z,100327.94
2018-08-12T20:59:13.854Z,100329.07
2018-08-12T21:01:43.711Z,100327.61
2018-08-12T21:04:13.561Z,100333.16
2018-08-12T21:06:43.286Z,100330.31
2018-08-12T21:09:13.050Z,100329.78
2018-08-12T21:11:42.898Z,100337.84
2018-08-12T21:14:12.589Z,100322.71
2018-08-12T21:16:42.253Z,100322.89
2018-08-12T21:19:11.933Z,100325.30
2018-08-12T21:21:41.670Z,100321.89
2018-08-12T21:24:11.461Z,100327.32
2018-08-12T21:26:41.415Z,100323.50
2018-08-12T21:29:11.198Z,100317.92
2018-08-12T21:31:41.837Z,100313.69
2018-08-12T21:34:11.632Z,100317.63
2018-08-12T21:36:41.338Z,100317.63
2018-08-12T21:39:13.249Z,100311.63
2018-08-12T21:41:43.108Z,100311.63
2018-08-12T21:44:12.768Z,100305.64
2018-08-12T21:46:43.038Z,100309.17
2018-08-12T21:49:12.850Z,100306.67
2018-08-12T21:51:42.561Z,100301.93
2018-08-12T21:54:12.467Z,100304.15
2018-08-12T21:56:42.417Z,100301.51
2018-08-12T21:59:12.224Z,100297.98
2018-08-12T22:01:41.954Z,100295.76
2018-08-12T22:04:11.677Z,100291.94
2018-08-12T22:06:41.443Z,100291.47
2018-08-12T22:09:11.917Z,100291.00
2018-08-12T22:11:41.961Z,100292.72
2018-08-12T22:14:11.817Z,100291.75
2018-08-12T22:16:41.549Z,100289.81
2018-08-12T22:19:11.238Z,100286.09
2018-08-12T22:21:40.948Z,100282.42
2018-08-12T22:24:10.704Z,100282.31
2018-08-12T22:26:40.372Z,100282.13
2018-08-12T22:29:10.278Z,100278.07
2018-08-12T22:31:40.019Z,100278.87
2018-08-12T22:34:09.815Z,100275.13
2018-08-12T22:36:39.530Z,100274.05
2018-08-12T22:39:10.227Z,100275.59
2018-08-12T22:41:39.908Z,100268.13
2018-08-12T22:44:09.626Z,100267.27
2018-08-12T22:46:39.360Z,100264.85
2018-08-12T22:49:09.201Z,100264.13
2018-08-12T22:51:38.959Z,100261.64
2018-08-12T23:09:01.891Z,100248.56
2018-08-12T23:11:33.123Z,100245.84
2018-08-12T23:14:02.828Z,100246.16
2018-08-12T23:16:49.129Z,100247.16
2018-08-12T23:19:18.838Z,100244.06
2018-08-12T23:21:48.574Z,100241.07
2018-08-12T23:24:18.427Z,100246.31
2018-08-12T23:26:48.090Z,100234.08
2018-08-12T23:29:17.876Z,100228.52
2018-08-12T23:31:47.677Z,100230.52
2018-08-12T23:34:17.381Z,100231.72
2018-08-12T23:36:47.053Z,100225.66
2018-08-12T23:39:16.769Z,100226.64
2018-08-12T23:41:46.521Z,100213.64
2018-08-12T23:44:16.189Z,100217.39
2018-08-12T23:46:45.928Z,100214.23
2018-08-12T23:49:15.599Z,100200.67
2018-08-12T23:51:45.285Z,100191.80
2018-08-12T23:54:15.180Z,100189.17
2018-08-12T23:56:44.916Z,100183.20
2018-08-12T23:59:14.619Z,100184.27
